Anthony, Texas
Current Conditions -  °F | °C
As of 11:58 PM on Friday 31 Oct 2014 (Local Time) from KBIF Reporting Station
Broken Clouds Broken Clouds  
Wind Chill: 17°   Ceiling: 22000
Heat Index: 17°   Visibility: 9mi
Dew Point:   Wind: 9mph
Humidity: 34%   Direction: 150°SSE
Pressure: 30.21"   Gusts: NA
Location:  32°N, 106.61°W
Report Text: KBIF 010558Z AUTO 15008KT 9SM FEW110 SCT140 BKN220 17/01 A3021 RMK AO2 RAB0525E0535 CIG 140 RWY03 SLP181 P0000 60000 T01670009 10220 20167 58001 $
Loading
Personal Weather Stations






























Interactive Weather Map
Tropical Storm Tracking
New forecast layout! Learn more

10-Day Weather Forecast

Advertisements
Track Severe Weather on mobile